Urb San Alfonso, Puerto Rico
Current Conditions -  °F | °C
As of 1:56 PM on Sunday 21 Dec 2014 (Local Time) from TJSJ Reporting Station
Scattered Clouds Scattered Clouds  
Wind Chill: 83°   Ceiling: Unl
Heat Index: 86°   Visibility: 10mi
Dew Point: 68°   Wind: 17mph
Humidity: 60%   Direction: 70°ENE
Pressure: 30.04"   Gusts: NA
Location:  18.2361°N, 66.0369°W
Report Text: TJSJ 211756Z 07015KT 10SM SCT042 SCT065 28/20 A3004 RMK AO2 SLP172 T02830200 10289 20244 58020
Loading
Personal Weather Stations






























Interactive Weather Map New forecast layout! Learn more

10-Day Weather Forecast

Advertisements
Track Severe Weather on mobile